Time;durP1;ratioP1;P1;durP2;ratioP2;P2;SDS_P1;SDS_P2;PMS_P1;PMS_P2;Temp;Humidity;BMP_temperature;BMP_pressure;BME280_temperature;BME280_humidity;BME280_pressure;Samples;Min_cycle;Max_cycle;Signal;HPM_P1;HPM_P2
2022/03/06 00:02:23;;;;;;;9.40;4.18;;;;;;;;;;4997689;28;20144;-59
2022/03/06 00:04:49;;;;;;;8.55;4.05;;;;;;;;;;4998846;28;20044;-59
2022/03/06 00:07:15;;;;;;;7.82;4.30;;;;;;;;;;5005208;28;20050;-60
2022/03/06 00:09:41;;;;;;;8.32;4.45;;;;;;;;;;5016812;28;20046;-59
2022/03/06 00:12:07;;;;;;;9.55;4.40;;;;;;;;;;5004680;28;20193;-59
2022/03/06 00:14:33;;;;;;;9.38;4.68;;;;;;;;;;5011800;28;20500;-58
2022/03/06 00:16:59;;;;;;;10.30;4.70;;;;;;;;;;5004650;28;20052;-59
2022/03/06 00:19:25;;;;;;;12.48;5.03;;;;;;;;;;5003072;28;20121;-59
2022/03/06 00:21:51;;;;;;;9.70;4.82;;;;;;;;;;5003618;28;20591;-58
2022/03/06 00:24:16;;;;;;;8.50;4.95;;;;;;;;;;5000881;28;20042;-58
2022/03/06 00:26:42;;;;;;;11.85;4.50;;;;;;;;;;4998270;28;20188;-59
2022/03/06 00:29:08;;;;;;;10.80;5.45;;;;;;;;;;5001277;28;20041;-60
2022/03/06 00:31:34;;;;;;;10.48;4.57;;;;;;;;;;4998659;28;20052;-59
2022/03/06 00:34:00;;;;;;;9.25;4.80;;;;;;;;;;5007915;28;20211;-59
2022/03/06 00:36:26;;;;;;;9.38;4.70;;;;;;;;;;4999851;28;20034;-60
2022/03/06 00:38:52;;;;;;;9.77;4.93;;;;;;;;;;4997748;28;20066;-58
2022/03/06 00:41:18;;;;;;;14.85;5.18;;;;;;;;;;4997624;28;20042;-58
2022/03/06 00:43:44;;;;;;;10.75;5.32;;;;;;;;;;4999306;28;20604;-58
2022/03/06 00:46:10;;;;;;;9.60;4.28;;;;;;;;;;4997358;28;20049;-59
2022/03/06 00:48:36;;;;;;;12.00;4.90;;;;;;;;;;4997421;28;20037;-59
2022/03/06 00:51:02;;;;;;;10.73;4.90;;;;;;;;;;4999976;28;20057;-59
2022/03/06 00:53:28;;;;;;;8.88;4.63;;;;;;;;;;4998164;28;20124;-58
2022/03/06 00:55:54;;;;;;;9.00;4.53;;;;;;;;;;4997038;28;20418;-59
2022/03/06 00:58:24;;;;;;;11.13;5.10;;;;;;;;;;4998674;28;20045;-58
2022/03/06 01:00:49;;;;;;;14.10;5.18;;;;;;;;;;4999803;28;20049;-59
2022/03/06 01:03:20;;;;;;;13.88;5.32;;;;;;;;;;4999928;28;20118;-58
2022/03/06 01:05:46;;;;;;;9.45;4.70;;;;;;;;;;4997934;28;20133;-57
2022/03/06 01:08:13;;;;;;;8.10;5.05;;;;;;;;;;4997365;28;20869;-58
2022/03/06 01:10:40;;;;;;;10.40;4.75;;;;;;;;;;5006337;28;20488;-58
2022/03/06 01:13:06;;;;;;;8.35;4.50;;;;;;;;;;4999712;28;20128;-59
2022/03/06 01:15:32;;;;;;;13.25;4.57;;;;;;;;;;5000185;28;21821;-58
2022/03/06 01:17:58;;;;;;;8.10;4.00;;;;;;;;;;4996468;28;20061;-58
2022/03/06 01:20:24;;;;;;;8.90;5.00;;;;;;;;;;4996973;28;20508;-57
2022/03/06 01:22:51;;;;;;;9.60;5.18;;;;;;;;;;4998922;28;20041;-57
2022/03/06 01:25:17;;;;;;;10.75;4.82;;;;;;;;;;4997746;28;20065;-58
2022/03/06 01:27:43;;;;;;;9.40;4.57;;;;;;;;;;4998294;28;20038;-56
2022/03/06 01:30:10;;;;;;;9.45;5.25;;;;;;;;;;5000728;28;20091;-57
2022/03/06 01:32:36;;;;;;;8.93;5.20;;;;;;;;;;4998096;28;20041;-57
2022/03/06 01:35:03;;;;;;;18.10;5.80;;;;;;;;;;4998375;28;20042;-55
2022/03/06 01:37:29;;;;;;;9.73;4.75;;;;;;;;;;4998260;28;20096;-56
2022/03/06 01:39:54;;;;;;;9.57;4.80;;;;;;;;;;4999038;28;20049;-57
2022/03/06 01:42:20;;;;;;;11.27;5.47;;;;;;;;;;4995813;28;21067;-57
2022/03/06 01:44:49;;;;;;;7.95;4.75;;;;;;;;;;4998056;28;20069;-58
2022/03/06 01:47:31;;;;;;;8.55;5.10;;;;;;;;;;4998493;28;20192;-57
2022/03/06 01:49:57;;;;;;;14.60;5.63;;;;;;;;;;4999036;28;20038;-58
2022/03/06 01:52:22;;;;;;;9.57;4.75;;;;;;;;;;4996388;28;20569;-56
2022/03/06 01:54:48;;;;;;;9.50;4.45;;;;;;;;;;4999478;28;20052;-58
2022/03/06 01:57:14;;;;;;;9.68;5.00;;;;;;;;;;4999269;28;20054;-57
2022/03/06 01:59:40;;;;;;;10.57;4.07;;;;;;;;;;4997546;28;20151;-57
2022/03/06 02:02:06;;;;;;;9.68;4.15;;;;;;;;;;5001004;28;20038;-56
2022/03/06 02:04:32;;;;;;;6.13;3.63;;;;;;;;;;5001082;28;20037;-55
2022/03/06 02:06:59;;;;;;;7.90;4.47;;;;;;;;;;4997068;28;20046;-56
2022/03/06 02:09:25;;;;;;;6.05;3.72;;;;;;;;;;4998662;28;20174;-56
2022/03/06 02:14:35;;;;;;;10.77;4.70;;;;;;;;;;4996629;28;20883;-57
2022/03/06 02:17:01;;;;;;;7.50;3.75;;;;;;;;;;4998650;28;20039;-57
2022/03/06 02:19:27;;;;;;;10.85;4.22;;;;;;;;;;5003922;28;20046;-55
2022/03/06 02:21:53;;;;;;;8.88;4.25;;;;;;;;;;5029486;28;20096;-56
2022/03/06 02:24:19;;;;;;;10.48;5.00;;;;;;;;;;4999507;28;20038;-58
2022/03/06 02:26:45;;;;;;;9.30;4.18;;;;;;;;;;4998587;28;20061;-54
2022/03/06 02:29:11;;;;;;;8.30;3.90;;;;;;;;;;4997442;28;20037;-57
2022/03/06 02:31:36;;;;;;;8.10;4.18;;;;;;;;;;4996838;28;20066;-57
2022/03/06 02:34:04;;;;;;;8.95;4.03;;;;;;;;;;4998787;28;20037;-60
2022/03/06 02:36:30;;;;;;;9.80;4.20;;;;;;;;;;5000360;28;20421;-56
2022/03/06 02:38:56;;;;;;;10.52;4.38;;;;;;;;;;5001784;28;20047;-58
2022/03/06 02:41:22;;;;;;;10.27;4.68;;;;;;;;;;5000336;28;20041;-59
2022/03/06 02:43:48;;;;;;;7.97;4.13;;;;;;;;;;5003803;28;20123;-59
2022/03/06 02:46:14;;;;;;;9.13;3.97;;;;;;;;;;5004565;28;20053;-58
2022/03/06 02:48:40;;;;;;;10.05;4.10;;;;;;;;;;5001056;28;20622;-58
2022/03/06 02:51:06;;;;;;;8.80;3.55;;;;;;;;;;5001478;28;20065;-57
2022/03/06 02:53:31;;;;;;;7.22;3.83;;;;;;;;;;4999256;28;20512;-58
2022/03/06 02:55:58;;;;;;;7.40;3.70;;;;;;;;;;5001717;28;20388;-59
2022/03/06 02:58:24;;;;;;;9.90;3.92;;;;;;;;;;5003292;28;20038;-58
2022/03/06 03:00:50;;;;;;;7.03;3.97;;;;;;;;;;5003383;28;20495;-56
2022/03/06 03:03:16;;;;;;;16.15;5.15;;;;;;;;;;5002457;28;20056;-57
2022/03/06 03:05:42;;;;;;;9.80;4.38;;;;;;;;;;5002554;28;20046;-59
2022/03/06 03:08:08;;;;;;;9.00;4.53;;;;;;;;;;5004114;28;20050;-58
2022/03/06 03:10:34;;;;;;;9.55;4.93;;;;;;;;;;5001847;28;20546;-58
2022/03/06 03:13:00;;;;;;;10.30;5.13;;;;;;;;;;5020899;28;20047;-58
2022/03/06 03:15:26;;;;;;;11.98;4.68;;;;;;;;;;5006583;28;21782;-58
2022/03/06 03:17:52;;;;;;;10.38;4.82;;;;;;;;;;5000154;28;20033;-59
2022/03/06 03:20:18;;;;;;;8.52;4.38;;;;;;;;;;5001289;28;20042;-59
2022/03/06 03:22:44;;;;;;;10.80;5.25;;;;;;;;;;4999824;28;20106;-59
2022/03/06 03:25:10;;;;;;;9.43;4.65;;;;;;;;;;5000377;28;20055;-57
2022/03/06 03:27:36;;;;;;;11.25;5.07;;;;;;;;;;4999292;28;20038;-58
2022/03/06 03:30:06;;;;;;;11.00;4.93;;;;;;;;;;4999442;28;20042;-57
2022/03/06 03:32:32;;;;;;;9.82;4.90;;;;;;;;;;5002884;28;20407;-57
2022/03/06 03:34:58;;;;;;;10.40;5.40;;;;;;;;;;5002797;28;20038;-57
2022/03/06 03:37:24;;;;;;;10.55;4.90;;;;;;;;;;4999218;28;20068;-56
2022/03/06 03:39:50;;;;;;;11.90;5.10;;;;;;;;;;5003466;28;20058;-58
2022/03/06 03:42:16;;;;;;;11.73;5.97;;;;;;;;;;5034811;28;20049;-57
2022/03/06 03:44:42;;;;;;;12.07;5.22;;;;;;;;;;5002864;28;20064;-58
2022/03/06 03:47:08;;;;;;;12.88;4.90;;;;;;;;;;5011236;28;20053;-57
2022/03/06 03:49:34;;;;;;;16.58;7.07;;;;;;;;;;5002586;28;20037;-57
2022/03/06 03:52:00;;;;;;;12.38;6.45;;;;;;;;;;5002868;28;20050;-57
2022/03/06 03:54:26;;;;;;;14.70;7.03;;;;;;;;;;5003714;28;20056;-57
2022/03/06 03:56:51;;;;;;;17.42;7.40;;;;;;;;;;5003849;28;20031;-57
2022/03/06 03:59:17;;;;;;;17.08;8.23;;;;;;;;;;5004995;28;20642;-58
2022/03/06 04:01:43;;;;;;;16.52;9.02;;;;;;;;;;5002398;28;20085;-57
2022/03/06 04:04:09;;;;;;;18.55;7.55;;;;;;;;;;5002759;28;20056;-57
2022/03/06 04:06:35;;;;;;;15.48;7.18;;;;;;;;;;5001446;28;20069;-58
2022/03/06 04:09:01;;;;;;;16.38;7.60;;;;;;;;;;5000961;28;20037;-59
2022/03/06 04:11:27;;;;;;;12.20;6.00;;;;;;;;;;5001280;28;20152;-57
2022/03/06 04:13:52;;;;;;;11.32;5.28;;;;;;;;;;5002395;28;20068;-59
2022/03/06 04:16:18;;;;;;;12.15;5.25;;;;;;;;;;5000537;28;20085;-57
2022/03/06 04:18:44;;;;;;;10.68;5.93;;;;;;;;;;5002749;28;20034;-58
2022/03/06 04:21:10;;;;;;;12.68;6.20;;;;;;;;;;5002280;28;20046;-58
2022/03/06 04:23:36;;;;;;;10.23;4.97;;;;;;;;;;4999547;28;20038;-58
2022/03/06 04:26:02;;;;;;;11.98;5.38;;;;;;;;;;5000741;28;20105;-57
2022/03/06 04:28:28;;;;;;;9.10;5.43;;;;;;;;;;5000090;28;20041;-57
2022/03/06 04:30:53;;;;;;;14.40;6.32;;;;;;;;;;5033785;28;20780;-56
2022/03/06 04:33:19;;;;;;;17.02;5.68;;;;;;;;;;5002296;28;20038;-58
2022/03/06 04:35:45;;;;;;;13.15;6.22;;;;;;;;;;5003742;28;20038;-58
2022/03/06 04:38:11;;;;;;;14.52;6.65;;;;;;;;;;5005973;28;20034;-57
2022/03/06 04:40:37;;;;;;;15.38;6.13;;;;;;;;;;5000102;28;20038;-57
2022/03/06 04:43:03;;;;;;;12.30;6.45;;;;;;;;;;5002860;28;20050;-57
2022/03/06 04:45:29;;;;;;;13.30;6.30;;;;;;;;;;5001287;28;20640;-55
2022/03/06 04:47:55;;;;;;;13.50;6.10;;;;;;;;;;5001535;28;20080;-57
2022/03/06 04:50:21;;;;;;;10.25;4.88;;;;;;;;;;5014060;28;20034;-54
2022/03/06 04:52:47;;;;;;;10.32;6.05;;;;;;;;;;5000447;28;20046;-54
2022/03/06 04:55:13;;;;;;;12.13;5.53;;;;;;;;;;5000493;28;20042;-54
2022/03/06 04:57:39;;;;;;;11.57;5.95;;;;;;;;;;5000850;28;20049;-57
2022/03/06 05:00:06;;;;;;;12.50;6.30;;;;;;;;;;5002793;28;20046;-57
2022/03/06 05:02:31;;;;;;;10.20;5.30;;;;;;;;;;5014139;28;20050;-57
2022/03/06 05:04:57;;;;;;;10.25;5.82;;;;;;;;;;5000479;28;20042;-57
2022/03/06 05:07:23;;;;;;;12.57;6.47;;;;;;;;;;5000654;28;20385;-57
2022/03/06 05:09:49;;;;;;;15.00;6.53;;;;;;;;;;5000196;28;20038;-56
2022/03/06 05:12:15;;;;;;;13.68;6.60;;;;;;;;;;5004390;28;20042;-59
2022/03/06 05:14:41;;;;;;;16.67;7.25;;;;;;;;;;5000279;28;20042;-55
2022/03/06 05:17:07;;;;;;;15.52;7.25;;;;;;;;;;5000450;28;20046;-57
2022/03/06 05:19:35;;;;;;;20.95;6.85;;;;;;;;;;4999449;28;20049;-58
2022/03/06 05:22:01;;;;;;;11.00;6.85;;;;;;;;;;4998961;28;20059;-57
2022/03/06 05:24:28;;;;;;;15.40;7.75;;;;;;;;;;5000114;28;20058;-57
2022/03/06 05:26:53;;;;;;;15.85;9.10;;;;;;;;;;5001256;28;20050;-57
2022/03/06 05:29:19;;;;;;;14.35;7.57;;;;;;;;;;4999198;28;20045;-57
2022/03/06 05:31:45;;;;;;;15.98;7.65;;;;;;;;;;4999289;28;20046;-57
2022/03/06 05:34:11;;;;;;;16.70;7.22;;;;;;;;;;5000299;28;20038;-57
2022/03/06 05:36:37;;;;;;;15.63;7.53;;;;;;;;;;4998917;28;20038;-58
2022/03/06 05:39:03;;;;;;;19.13;8.07;;;;;;;;;;5001993;28;20042;-58
2022/03/06 05:41:29;;;;;;;17.25;7.45;;;;;;;;;;5000812;28;20424;-58
2022/03/06 05:43:55;;;;;;;12.05;6.75;;;;;;;;;;5006181;28;20053;-58
2022/03/06 05:46:21;;;;;;;18.25;6.65;;;;;;;;;;5008545;28;20077;-59
2022/03/06 05:48:48;;;;;;;14.88;6.35;;;;;;;;;;5005204;28;20045;-56
2022/03/06 05:51:14;;;;;;;13.40;7.00;;;;;;;;;;5002305;28;20091;-58
2022/03/06 05:53:40;;;;;;;14.93;6.97;;;;;;;;;;5005672;28;20128;-57
2022/03/06 05:56:06;;;;;;;15.88;7.25;;;;;;;;;;5009329;28;20044;-58
2022/03/06 05:58:32;;;;;;;19.58;6.25;;;;;;;;;;5004923;28;20038;-56
2022/03/06 06:00:58;;;;;;;17.63;6.63;;;;;;;;;;5000081;28;20048;-57
2022/03/06 06:03:25;;;;;;;20.42;7.57;;;;;;;;;;4998002;28;20496;-57
2022/03/06 06:05:51;;;;;;;18.95;7.40;;;;;;;;;;5000776;28;20050;-56
2022/03/06 06:08:17;;;;;;;14.35;7.05;;;;;;;;;;4998837;28;20042;-56
2022/03/06 06:10:45;;;;;;;14.00;7.82;;;;;;;;;;4997640;28;21695;-56
2022/03/06 06:13:14;;;;;;;17.33;8.38;;;;;;;;;;5000782;28;20682;-57
2022/03/06 06:15:43;;;;;;;16.45;7.05;;;;;;;;;;4998672;28;20103;-55
2022/03/06 06:18:10;;;;;;;21.92;8.18;;;;;;;;;;5000494;28;20088;-57
2022/03/06 06:20:36;;;;;;;11.82;6.88;;;;;;;;;;4998977;28;20034;-58
2022/03/06 06:23:05;;;;;;;13.13;6.35;;;;;;;;;;5003886;28;20045;-58
2022/03/06 06:25:31;;;;;;;17.27;6.97;;;;;;;;;;5007791;28;20494;-55
2022/03/06 06:27:57;;;;;;;14.50;6.32;;;;;;;;;;5006955;28;20042;-58
2022/03/06 06:30:23;;;;;;;11.27;5.78;;;;;;;;;;5004923;28;20033;-58
2022/03/06 06:32:49;;;;;;;13.20;6.22;;;;;;;;;;5004678;28;20050;-57
2022/03/06 06:35:14;;;;;;;13.05;6.13;;;;;;;;;;5005226;28;20091;-58
2022/03/06 06:37:40;;;;;;;10.93;6.00;;;;;;;;;;5000340;28;20434;-57
2022/03/06 06:40:07;;;;;;;9.88;5.85;;;;;;;;;;5006742;28;20045;-56
2022/03/06 06:42:32;;;;;;;15.23;6.07;;;;;;;;;;5003718;28;20038;-57
2022/03/06 06:44:58;;;;;;;9.32;5.18;;;;;;;;;;5006436;28;20121;-57
2022/03/06 06:47:24;;;;;;;12.68;6.07;;;;;;;;;;5005085;28;20049;-56
2022/03/06 06:49:50;;;;;;;11.90;6.32;;;;;;;;;;5002420;28;20041;-56
2022/03/06 06:52:16;;;;;;;12.68;6.00;;;;;;;;;;5004957;28;20042;-56
2022/03/06 06:54:42;;;;;;;11.88;6.18;;;;;;;;;;5000747;28;20096;-58
2022/03/06 06:57:08;;;;;;;9.85;5.45;;;;;;;;;;5000944;28;20034;-57
2022/03/06 06:59:33;;;;;;;13.00;6.38;;;;;;;;;;5000742;28;20531;-57
2022/03/06 07:01:59;;;;;;;13.25;6.70;;;;;;;;;;5000959;28;20049;-56
2022/03/06 07:04:25;;;;;;;11.52;5.63;;;;;;;;;;5001002;28;20052;-54
2022/03/06 07:06:51;;;;;;;14.55;6.25;;;;;;;;;;5001595;28;20060;-56
2022/03/06 07:09:17;;;;;;;12.13;6.13;;;;;;;;;;5001048;28;20055;-56
2022/03/06 07:11:43;;;;;;;18.42;5.95;;;;;;;;;;5006793;28;20070;-57
2022/03/06 07:14:09;;;;;;;10.98;6.22;;;;;;;;;;5000577;28;20037;-58
2022/03/06 07:16:35;;;;;;;14.43;5.80;;;;;;;;;;5000053;28;20129;-57
2022/03/06 07:19:01;;;;;;;16.42;6.35;;;;;;;;;;5001875;28;20852;-57
2022/03/06 07:21:26;;;;;;;12.85;5.18;;;;;;;;;;4998522;28;20038;-58
2022/03/06 07:23:52;;;;;;;9.68;5.45;;;;;;;;;;4998759;28;20038;-57
2022/03/06 07:26:18;;;;;;;8.77;4.82;;;;;;;;;;5000835;28;20061;-58
2022/03/06 07:28:44;;;;;;;11.18;5.10;;;;;;;;;;5002429;28;20734;-58
2022/03/06 07:31:10;;;;;;;11.63;4.93;;;;;;;;;;5000351;28;20141;-56
2022/03/06 07:33:36;;;;;;;11.23;5.43;;;;;;;;;;5000475;28;20039;-57
2022/03/06 07:36:02;;;;;;;12.88;5.22;;;;;;;;;;5001448;28;20034;-57
2022/03/06 07:38:28;;;;;;;6.93;4.45;;;;;;;;;;4999015;28;20073;-58
2022/03/06 07:40:54;;;;;;;9.65;4.38;;;;;;;;;;5001599;28;20042;-58
2022/03/06 07:43:20;;;;;;;11.70;4.72;;;;;;;;;;4998322;28;20129;-57
2022/03/06 07:45:46;;;;;;;8.43;4.38;;;;;;;;;;5000643;28;20053;-58
2022/03/06 07:48:12;;;;;;;10.40;4.43;;;;;;;;;;4999978;28;20103;-57
2022/03/06 07:50:37;;;;;;;7.80;3.13;;;;;;;;;;4999758;28;20053;-57
2022/03/06 07:53:04;;;;;;;7.43;3.65;;;;;;;;;;4998035;28;20053;-58
2022/03/06 07:55:29;;;;;;;7.10;3.55;;;;;;;;;;5000630;28;20556;-58
2022/03/06 07:57:55;;;;;;;9.35;3.40;;;;;;;;;;5014793;28;20041;-58
2022/03/06 08:00:21;;;;;;;4.03;1.85;;;;;;;;;;5000023;28;20041;-58
2022/03/06 08:02:47;;;;;;;5.38;2.75;;;;;;;;;;4999994;28;20136;-56
2022/03/06 08:05:13;;;;;;;6.15;2.40;;;;;;;;;;5002625;28;20034;-57
2022/03/06 08:07:39;;;;;;;5.30;2.75;;;;;;;;;;4999847;28;20053;-58
2022/03/06 08:10:06;;;;;;;9.85;3.22;;;;;;;;;;5003272;28;20400;-58
2022/03/06 08:12:32;;;;;;;6.00;2.45;;;;;;;;;;5003917;28;20093;-58
2022/03/06 08:14:58;;;;;;;5.72;2.55;;;;;;;;;;4999437;28;20640;-59
2022/03/06 08:17:24;;;;;;;3.15;1.70;;;;;;;;;;5002445;28;20045;-59
2022/03/06 08:19:50;;;;;;;5.45;2.70;;;;;;;;;;5036195;28;20038;-58
2022/03/06 08:22:16;;;;;;;8.45;3.80;;;;;;;;;;5002323;28;20052;-57
2022/03/06 08:24:42;;;;;;;6.15;2.90;;;;;;;;;;5013947;28;20042;-57
2022/03/06 08:27:08;;;;;;;3.00;1.05;;;;;;;;;;5002411;28;20516;-59
2022/03/06 08:29:34;;;;;;;4.35;1.50;;;;;;;;;;5000005;28;20042;-57
2022/03/06 08:31:59;;;;;;;5.68;1.83;;;;;;;;;;5000794;28;20113;-57
2022/03/06 08:34:25;;;;;;;8.98;1.98;;;;;;;;;;5000146;28;20503;-57
2022/03/06 08:36:51;;;;;;;7.55;2.50;;;;;;;;;;5000786;28;20042;-56
2022/03/06 08:39:17;;;;;;;2.03;1.17;;;;;;;;;;4999254;28;20025;-58
2022/03/06 08:41:43;;;;;;;4.57;1.83;;;;;;;;;;5006190;28;20046;-58
2022/03/06 08:44:10;;;;;;;3.47;1.60;;;;;;;;;;4999040;28;20732;-58
2022/03/06 08:46:35;;;;;;;2.63;1.20;;;;;;;;;;4999919;28;20496;-58
2022/03/06 08:49:01;;;;;;;2.47;1.10;;;;;;;;;;5001362;28;20125;-57
2022/03/06 08:51:27;;;;;;;4.50;2.20;;;;;;;;;;4998918;28;20654;-58
2022/03/06 08:53:53;;;;;;;7.03;2.08;;;;;;;;;;4998238;28;20484;-59
2022/03/06 08:56:19;;;;;;;6.28;2.67;;;;;;;;;;5001038;28;20049;-58
2022/03/06 08:58:45;;;;;;;5.43;2.50;;;;;;;;;;4999902;28;20037;-57
2022/03/06 09:01:11;;;;;;;4.95;2.33;;;;;;;;;;5001210;28;20084;-57
2022/03/06 09:03:37;;;;;;;3.90;1.95;;;;;;;;;;5001198;28;20066;-58
2022/03/06 09:06:03;;;;;;;3.90;1.90;;;;;;;;;;5002183;28;20057;-57
2022/03/06 09:08:29;;;;;;;2.88;1.45;;;;;;;;;;4998340;28;20408;-57
2022/03/06 09:10:55;;;;;;;4.60;2.17;;;;;;;;;;4999087;28;20050;-57
2022/03/06 09:13:21;;;;;;;3.25;1.40;;;;;;;;;;4995522;28;20898;-58
2022/03/06 09:15:47;;;;;;;5.03;2.10;;;;;;;;;;5000625;28;20439;-57
2022/03/06 09:18:13;;;;;;;4.50;2.30;;;;;;;;;;4998476;28;20052;-56
2022/03/06 09:20:38;;;;;;;4.82;1.92;;;;;;;;;;4996460;28;20075;-57
2022/03/06 09:23:05;;;;;;;5.68;2.38;;;;;;;;;;4997879;28;20048;-56
2022/03/06 09:25:33;;;;;;;3.90;1.70;;;;;;;;;;4997736;28;20053;-58
2022/03/06 09:28:02;;;;;;;4.55;1.90;;;;;;;;;;5000540;28;20175;-59
2022/03/06 09:30:29;;;;;;;3.13;1.50;;;;;;;;;;4996309;28;20164;-56
2022/03/06 09:32:54;;;;;;;2.92;1.45;;;;;;;;;;5013303;28;20030;-58
2022/03/06 09:35:21;;;;;;;4.07;1.80;;;;;;;;;;5020655;28;20047;-58
2022/03/06 09:37:46;;;;;;;7.43;1.70;;;;;;;;;;4999794;28;20030;-57
2022/03/06 09:40:12;;;;;;;5.88;1.33;;;;;;;;;;5006315;28;20042;-57
2022/03/06 09:42:39;;;;;;;3.50;1.70;;;;;;;;;;5005446;28;20046;-56
2022/03/06 09:45:08;;;;;;;3.85;1.92;;;;;;;;;;5002438;28;20031;-55
2022/03/06 09:47:34;;;;;;;6.05;2.10;;;;;;;;;;4998549;28;20054;-58
2022/03/06 09:50:01;;;;;;;6.05;2.25;;;;;;;;;;5000175;28;20151;-56
2022/03/06 09:52:27;;;;;;;4.10;1.70;;;;;;;;;;4996669;28;20049;-58
2022/03/06 09:54:54;;;;;;;4.20;1.88;;;;;;;;;;5015362;28;20482;-57
2022/03/06 09:57:20;;;;;;;3.60;1.80;;;;;;;;;;4999028;28;20049;-58
2022/03/06 09:59:47;;;;;;;6.95;1.83;;;;;;;;;;4998712;28;20499;-58
2022/03/06 10:02:14;;;;;;;5.55;2.13;;;;;;;;;;4999801;28;20042;-57
2022/03/06 10:04:40;;;;;;;3.70;1.73;;;;;;;;;;5006333;28;20037;-58
2022/03/06 10:07:10;;;;;;;4.47;1.80;;;;;;;;;;5001283;28;20045;-56
2022/03/06 10:09:42;;;;;;;3.40;1.77;;;;;;;;;;4995565;28;20034;-58
2022/03/06 10:12:43;;;;;;;4.47;1.55;;;;;;;;;;5000464;28;20085;-59
2022/03/06 10:15:13;;;;;;;7.43;2.10;;;;;;;;;;4993200;28;20042;-58
2022/03/06 10:17:39;;;;;;;4.32;1.88;;;;;;;;;;4997364;28;20046;-57
2022/03/06 10:20:06;;;;;;;3.95;1.67;;;;;;;;;;5002728;28;21921;-58
2022/03/06 10:22:35;;;;;;;5.47;1.88;;;;;;;;;;4999084;28;20053;-56
2022/03/06 10:25:05;;;;;;;2.80;1.30;;;;;;;;;;4996220;28;20045;-57
2022/03/06 10:27:46;;;;;;;4.25;1.67;;;;;;;;;;4998530;28;20050;-57
2022/03/06 10:30:21;;;;;;;5.88;1.80;;;;;;;;;;4997431;28;20381;-56
2022/03/06 10:32:47;;;;;;;3.67;1.75;;;;;;;;;;4997471;28;20053;-56
2022/03/06 10:35:13;;;;;;;3.60;1.50;;;;;;;;;;4997934;28;20026;-58
2022/03/06 10:37:39;;;;;;;7.43;1.85;;;;;;;;;;4998699;28;20045;-57
2022/03/06 10:40:05;;;;;;;3.70;1.55;;;;;;;;;;5028821;28;20040;-56
2022/03/06 10:42:31;;;;;;;6.00;1.85;;;;;;;;;;4995458;28;20109;-56
2022/03/06 10:44:57;;;;;;;3.85;1.60;;;;;;;;;;4994806;28;20038;-58
2022/03/06 10:47:23;;;;;;;3.70;1.60;;;;;;;;;;4995692;28;20444;-56
2022/03/06 10:50:01;;;;;;;4.38;1.55;;;;;;;;;;4996314;28;20046;-57
2022/03/06 10:52:27;;;;;;;3.58;1.38;;;;;;;;;;4996765;28;20053;-57
2022/03/06 10:54:57;;;;;;;4.53;1.75;;;;;;;;;;4994832;28;20029;-57
2022/03/06 10:57:24;;;;;;;3.65;1.50;;;;;;;;;;4994450;28;20034;-57
2022/03/06 10:59:50;;;;;;;4.82;1.50;;;;;;;;;;4997170;28;20044;-58
2022/03/06 11:02:16;;;;;;;3.55;1.58;;;;;;;;;;4995878;28;20049;-57
2022/03/06 11:04:44;;;;;;;4.20;1.50;;;;;;;;;;4994106;28;20042;-56
2022/03/06 11:07:10;;;;;;;5.47;1.70;;;;;;;;;;4995850;28;20509;-56
2022/03/06 11:09:37;;;;;;;3.47;1.50;;;;;;;;;;4995000;28;20093;-57
2022/03/06 11:12:03;;;;;;;3.90;1.88;;;;;;;;;;4997375;28;20046;-57
2022/03/06 11:14:31;;;;;;;4.95;1.73;;;;;;;;;;5000957;28;20451;-57
2022/03/06 11:16:57;;;;;;;4.28;1.33;;;;;;;;;;5001013;28;20048;-57
2022/03/06 11:19:25;;;;;;;4.75;2.03;;;;;;;;;;4999023;28;20026;-57
2022/03/06 11:21:55;;;;;;;3.80;1.70;;;;;;;;;;4998592;28;20046;-56
2022/03/06 11:24:25;;;;;;;5.35;1.52;;;;;;;;;;5000027;28;20895;-56
2022/03/06 11:27:14;;;;;;;3.10;1.45;;;;;;;;;;5000108;28;20129;-57
2022/03/06 11:29:48;;;;;;;3.65;1.63;;;;;;;;;;4994118;28;20038;-57
2022/03/06 11:32:22;;;;;;;3.58;1.50;;;;;;;;;;4998500;28;20042;-56
2022/03/06 11:34:48;;;;;;;;;;;;;;;;;;5008768;28;20049;-58
2022/03/06 11:37:15;;;;;;;2.92;1.13;;;;;;;;;;5001644;28;19922;-56
2022/03/06 11:39:42;;;;;;;6.20;1.73;;;;;;;;;;5000443;28;20113;-59
2022/03/06 11:42:09;;;;;;;3.95;1.45;;;;;;;;;;5034122;28;20397;-58
2022/03/06 11:44:36;;;;;;;4.85;1.92;;;;;;;;;;4997088;28;20034;-56
2022/03/06 11:47:11;;;;;;;4.03;1.88;;;;;;;;;;5002998;28;20042;-58
2022/03/06 11:49:37;;;;;;;3.60;1.60;;;;;;;;;;5000656;28;20068;-58
2022/03/06 11:52:22;;;;;;;5.15;1.60;;;;;;;;;;5000981;28;20476;-57
2022/03/06 11:54:48;;;;;;;3.35;1.55;;;;;;;;;;4999386;28;20064;-57
2022/03/06 11:57:34;;;;;;;3.38;1.52;;;;;;;;;;4999904;28;20508;-58
2022/03/06 12:00:18;;;;;;;3.35;1.42;;;;;;;;;;4999687;28;20048;-57
2022/03/06 12:02:48;;;;;;;5.75;1.55;;;;;;;;;;5002121;28;20038;-58
2022/03/06 12:05:16;;;;;;;5.15;1.77;;;;;;;;;;5000619;28;20673;-56
2022/03/06 12:07:42;;;;;;;3.63;1.60;;;;;;;;;;4999423;28;20408;-56
2022/03/06 12:10:10;;;;;;;3.65;1.60;;;;;;;;;;4997960;28;20057;-58
2022/03/06 12:12:36;;;;;;;4.82;1.67;;;;;;;;;;4998304;28;20425;-57
2022/03/06 12:15:24;;;;;;;4.25;1.50;;;;;;;;;;5002682;28;20104;-57
2022/03/06 12:17:50;;;;;;;3.72;1.73;;;;;;;;;;4999273;28;20121;-57
2022/03/06 12:20:22;;;;;;;4.05;1.95;;;;;;;;;;4998290;28;20822;-58
2022/03/06 12:22:50;;;;;;;2.97;1.30;;;;;;;;;;4998725;28;20042;-55
2022/03/06 12:25:17;;;;;;;9.88;1.73;;;;;;;;;;5007136;28;20030;-58
2022/03/06 12:28:01;;;;;;;4.65;1.63;;;;;;;;;;4995589;28;20322;-57
2022/03/06 12:30:27;;;;;;;3.83;1.65;;;;;;;;;;5027188;28;20033;-57
2022/03/06 12:32:54;;;;;;;4.03;1.70;;;;;;;;;;4996732;28;20049;-57
2022/03/06 12:35:25;;;;;;;4.93;2.10;;;;;;;;;;4996944;28;20033;-58
2022/03/06 12:37:54;;;;;;;4.18;1.73;;;;;;;;;;4997689;28;20495;-58
2022/03/06 12:40:21;;;;;;;4.05;1.63;;;;;;;;;;4997283;28;20125;-58
2022/03/06 12:43:01;;;;;;;4.30;1.90;;;;;;;;;;4997076;28;20944;-57
2022/03/06 12:45:27;;;;;;;2.90;1.30;;;;;;;;;;4996529;28;20099;-56
2022/03/06 12:47:53;;;;;;;3.47;1.50;;;;;;;;;;4998205;28;20137;-57
2022/03/06 12:50:19;;;;;;;4.32;1.70;;;;;;;;;;4996937;28;20044;-56
2022/03/06 12:52:46;;;;;;;4.10;1.55;;;;;;;;;;4997292;28;20038;-56
2022/03/06 12:55:16;;;;;;;4.57;2.08;;;;;;;;;;4997926;28;20562;-57
2022/03/06 12:57:44;;;;;;;3.47;1.67;;;;;;;;;;4998629;28;20042;-57
2022/03/06 13:00:11;;;;;;;4.43;1.63;;;;;;;;;;4997743;28;20273;-58
2022/03/06 13:02:37;;;;;;;2.83;1.30;;;;;;;;;;4997041;28;20081;-59
2022/03/06 13:05:03;;;;;;;3.67;1.70;;;;;;;;;;4999904;28;20042;-56
2022/03/06 13:07:30;;;;;;;3.15;1.70;;;;;;;;;;5001509;28;20037;-56
2022/03/06 13:09:57;;;;;;;4.05;1.50;;;;;;;;;;4999061;28;20037;-56
2022/03/06 13:12:23;;;;;;;4.55;1.55;;;;;;;;;;5029483;28;20057;-57
2022/03/06 13:14:49;;;;;;;2.85;1.27;;;;;;;;;;4997446;28;20519;-56
2022/03/06 13:17:18;;;;;;;2.63;1.17;;;;;;;;;;5001470;28;20050;-57
2022/03/06 13:19:45;;;;;;;3.72;1.27;;;;;;;;;;5001418;28;20511;-57
2022/03/06 13:22:16;;;;;;;3.47;1.33;;;;;;;;;;5003265;28;20056;-57
2022/03/06 13:24:45;;;;;;;3.75;1.13;;;;;;;;;;4999757;28;20037;-58
2022/03/06 13:27:12;;;;;;;3.00;1.35;;;;;;;;;;5030540;28;20054;-57
2022/03/06 13:29:38;;;;;;;3.75;1.30;;;;;;;;;;4999796;28;20046;-57
2022/03/06 13:32:04;;;;;;;1.80;0.85;;;;;;;;;;5000682;28;20049;-58
2022/03/06 13:34:40;;;;;;;3.10;1.10;;;;;;;;;;4997184;28;20095;-57
2022/03/06 13:37:06;;;;;;;3.10;1.10;;;;;;;;;;4998752;28;20045;-58
2022/03/06 13:39:33;;;;;;;3.97;1.20;;;;;;;;;;5000488;28;20038;-58
2022/03/06 13:41:59;;;;;;;2.60;0.88;;;;;;;;;;5007439;28;20048;-57
2022/03/06 13:44:25;;;;;;;2.95;1.20;;;;;;;;;;5012870;28;20050;-58
2022/03/06 13:46:52;;;;;;;3.10;1.20;;;;;;;;;;5013480;28;20049;-58
2022/03/06 13:49:20;;;;;;;3.58;1.45;;;;;;;;;;4996506;28;20110;-58
2022/03/06 13:51:52;;;;;;;2.63;1.00;;;;;;;;;;4996681;28;20041;-57
2022/03/06 13:54:18;;;;;;;3.08;1.23;;;;;;;;;;4995983;28;20100;-58
2022/03/06 13:56:44;;;;;;;4.05;1.13;;;;;;;;;;4996305;28;20431;-57
2022/03/06 13:59:23;;;;;;;3.58;1.15;;;;;;;;;;4997601;28;20066;-57
2022/03/06 14:01:49;;;;;;;3.20;1.27;;;;;;;;;;4999193;28;20164;-56
2022/03/06 14:04:15;;;;;;;2.97;1.02;;;;;;;;;;4998842;28;20066;-56
2022/03/06 14:06:42;;;;;;;3.40;1.30;;;;;;;;;;4999608;28;20157;-57
2022/03/06 14:09:18;;;;;;;2.42;0.90;;;;;;;;;;5003415;28;20037;-57
2022/03/06 14:11:44;;;;;;;3.08;1.13;;;;;;;;;;5000275;28;20042;-58
2022/03/06 14:14:10;;;;;;;2.85;1.05;;;;;;;;;;5003744;28;20037;-57
2022/03/06 14:16:36;;;;;;;3.20;0.98;;;;;;;;;;5001918;28;20038;-58
2022/03/06 14:19:03;;;;;;;3.38;1.20;;;;;;;;;;4996689;28;20500;-56
2022/03/06 14:21:30;;;;;;;2.85;0.88;;;;;;;;;;4999555;28;20042;-58
2022/03/06 14:23:57;;;;;;;3.53;1.20;;;;;;;;;;5000448;28;20038;-59
2022/03/06 14:26:27;;;;;;;3.42;1.20;;;;;;;;;;5003191;28;20054;-55
2022/03/06 14:29:00;;;;;;;2.55;1.00;;;;;;;;;;4998248;28;20436;-58
2022/03/06 14:31:27;;;;;;;4.07;1.40;;;;;;;;;;4998604;28;20037;-55
2022/03/06 14:33:53;;;;;;;1.85;0.70;;;;;;;;;;5000189;28;20037;-58
2022/03/06 14:36:19;;;;;;;1.77;0.73;;;;;;;;;;4997617;28;20480;-58
2022/03/06 14:38:46;;;;;;;3.03;1.10;;;;;;;;;;4995903;28;20046;-58
2022/03/06 14:41:12;;;;;;;4.20;1.40;;;;;;;;;;4998516;28;20042;-59